sensor_id;sensor_type;location;lat;lon;timestamp;P1;durP1;ratioP1;P2;durP2;ratioP2
16119;SDS011;12670;53.502;10.252;2023-04-24T00:00:24;5.83;;;4.60;;
16119;SDS011;12670;53.502;10.252;2023-04-24T00:03:28;6.87;;;3.90;;
16119;SDS011;12670;53.502;10.252;2023-04-24T00:06:32;6.47;;;4.43;;
16119;SDS011;12670;53.502;10.252;2023-04-24T00:09:35;7.27;;;4.47;;
16119;SDS011;12670;53.502;10.252;2023-04-24T00:12:38;4.90;;;4.00;;
16119;SDS011;12670;53.502;10.252;2023-04-24T00:15:40;6.33;;;4.60;;
16119;SDS011;12670;53.502;10.252;2023-04-24T00:18:43;9.40;;;4.20;;
16119;SDS011;12670;53.502;10.252;2023-04-24T00:21:47;5.83;;;3.93;;
16119;SDS011;12670;53.502;10.252;2023-04-24T00:24:51;7.10;;;4.40;;
16119;SDS011;12670;53.502;10.252;2023-04-24T00:27:54;7.23;;;4.90;;
16119;SDS011;12670;53.502;10.252;2023-04-24T00:30:57;6.03;;;4.43;;
16119;SDS011;12670;53.502;10.252;2023-04-24T00:33:59;7.20;;;4.57;;
16119;SDS011;12670;53.502;10.252;2023-04-24T00:37:03;7.50;;;4.53;;
16119;SDS011;12670;53.502;10.252;2023-04-24T00:40:06;9.63;;;4.73;;
16119;SDS011;12670;53.502;10.252;2023-04-24T00:43:10;5.63;;;4.50;;
16119;SDS011;12670;53.502;10.252;2023-04-24T00:46:13;5.43;;;4.27;;
16119;SDS011;12670;53.502;10.252;2023-04-24T00:49:16;5.67;;;4.30;;
16119;SDS011;12670;53.502;10.252;2023-04-24T00:52:20;6.47;;;4.30;;
16119;SDS011;12670;53.502;10.252;2023-04-24T00:55:25;6.90;;;4.20;;
16119;SDS011;12670;53.502;10.252;2023-04-24T00:58:28;4.90;;;3.80;;
16119;SDS011;12670;53.502;10.252;2023-04-24T01:01:31;7.10;;;4.10;;
16119;SDS011;12670;53.502;10.252;2023-04-24T01:04:34;6.90;;;4.00;;
16119;SDS011;12670;53.502;10.252;2023-04-24T01:07:39;6.63;;;4.00;;
16119;SDS011;12670;53.502;10.252;2023-04-24T01:10:45;5.57;;;3.73;;
16119;SDS011;12670;53.502;10.252;2023-04-24T01:13:49;5.40;;;3.80;;
16119;SDS011;12670;53.502;10.252;2023-04-24T01:16:52;5.10;;;4.10;;
16119;SDS011;12670;53.502;10.252;2023-04-24T01:19:56;6.57;;;4.23;;
16119;SDS011;12670;53.502;10.252;2023-04-24T01:23:00;5.90;;;4.10;;
16119;SDS011;12670;53.502;10.252;2023-04-24T01:26:03;6.07;;;3.87;;
16119;SDS011;12670;53.502;10.252;2023-04-24T01:29:06;5.17;;;3.57;;
16119;SDS011;12670;53.502;10.252;2023-04-24T01:32:08;7.17;;;4.10;;
16119;SDS011;12670;53.502;10.252;2023-04-24T01:35:11;4.77;;;3.60;;
16119;SDS011;12670;53.502;10.252;2023-04-24T01:38:15;5.93;;;3.63;;
16119;SDS011;12670;53.502;10.252;2023-04-24T01:41:17;5.73;;;3.60;;
16119;SDS011;12670;53.502;10.252;2023-04-24T01:44:21;5.20;;;3.10;;
16119;SDS011;12670;53.502;10.252;2023-04-24T01:47:24;7.40;;;3.50;;
16119;SDS011;12670;53.502;10.252;2023-04-24T01:50:26;5.10;;;3.37;;
16119;SDS011;12670;53.502;10.252;2023-04-24T01:53:30;4.07;;;3.10;;
16119;SDS011;12670;53.502;10.252;2023-04-24T01:56:33;3.83;;;2.93;;
16119;SDS011;12670;53.502;10.252;2023-04-24T01:59:37;4.57;;;3.00;;
16119;SDS011;12670;53.502;10.252;2023-04-24T02:02:39;4.33;;;2.90;;
16119;SDS011;12670;53.502;10.252;2023-04-24T02:05:45;6.33;;;3.23;;
16119;SDS011;12670;53.502;10.252;2023-04-24T02:08:50;3.53;;;2.67;;
16119;SDS011;12670;53.502;10.252;2023-04-24T02:11:52;4.60;;;3.10;;
16119;SDS011;12670;53.502;10.252;2023-04-24T02:14:55;5.47;;;2.90;;
16119;SDS011;12670;53.502;10.252;2023-04-24T02:17:57;4.70;;;3.00;;
16119;SDS011;12670;53.502;10.252;2023-04-24T02:21:00;5.67;;;2.63;;
16119;SDS011;12670;53.502;10.252;2023-04-24T02:24:04;3.57;;;2.60;;
16119;SDS011;12670;53.502;10.252;2023-04-24T02:27:07;3.50;;;2.37;;
16119;SDS011;12670;53.502;10.252;2023-04-24T02:30:09;3.90;;;2.33;;
16119;SDS011;12670;53.502;10.252;2023-04-24T02:33:12;3.60;;;2.70;;
16119;SDS011;12670;53.502;10.252;2023-04-24T02:36:15;5.87;;;2.60;;
16119;SDS011;12670;53.502;10.252;2023-04-24T02:39:19;4.17;;;2.13;;
16119;SDS011;12670;53.502;10.252;2023-04-24T02:42:22;3.00;;;2.10;;
16119;SDS011;12670;53.502;10.252;2023-04-24T02:45:25;3.40;;;2.03;;
16119;SDS011;12670;53.502;10.252;2023-04-24T02:48:27;3.37;;;1.60;;
16119;SDS011;12670;53.502;10.252;2023-04-24T02:51:30;7.00;;;1.80;;
16119;SDS011;12670;53.502;10.252;2023-04-24T02:54:34;3.17;;;1.93;;
16119;SDS011;12670;53.502;10.252;2023-04-24T02:57:37;3.23;;;1.90;;
16119;SDS011;12670;53.502;10.252;2023-04-24T03:00:39;2.37;;;1.70;;
16119;SDS011;12670;53.502;10.252;2023-04-24T03:03:42;4.83;;;1.60;;
16119;SDS011;12670;53.502;10.252;2023-04-24T03:06:45;2.17;;;1.70;;
16119;SDS011;12670;53.502;10.252;2023-04-24T03:09:49;2.00;;;1.60;;
16119;SDS011;12670;53.502;10.252;2023-04-24T03:12:52;1.77;;;1.53;;
16119;SDS011;12670;53.502;10.252;2023-04-24T03:15:56;4.53;;;1.47;;
16119;SDS011;12670;53.502;10.252;2023-04-24T03:18:58;2.37;;;1.60;;
16119;SDS011;12670;53.502;10.252;2023-04-24T03:22:01;4.50;;;1.50;;
16119;SDS011;12670;53.502;10.252;2023-04-24T03:25:06;2.87;;;1.53;;
16119;SDS011;12670;53.502;10.252;2023-04-24T03:28:10;2.23;;;1.40;;
16119;SDS011;12670;53.502;10.252;2023-04-24T03:31:13;2.30;;;1.50;;
16119;SDS011;12670;53.502;10.252;2023-04-24T03:34:16;2.83;;;1.80;;
16119;SDS011;12670;53.502;10.252;2023-04-24T03:37:19;3.27;;;1.50;;
16119;SDS011;12670;53.502;10.252;2023-04-24T03:40:23;2.43;;;1.43;;
16119;SDS011;12670;53.502;10.252;2023-04-24T03:43:25;5.57;;;1.50;;
16119;SDS011;12670;53.502;10.252;2023-04-24T03:46:28;2.63;;;1.73;;
16119;SDS011;12670;53.502;10.252;2023-04-24T03:49:31;2.37;;;1.40;;
16119;SDS011;12670;53.502;10.252;2023-04-24T03:52:34;2.03;;;1.60;;
16119;SDS011;12670;53.502;10.252;2023-04-24T03:55:38;3.30;;;1.50;;
16119;SDS011;12670;53.502;10.252;2023-04-24T03:58:40;2.30;;;1.50;;
16119;SDS011;12670;53.502;10.252;2023-04-24T04:01:44;3.90;;;1.90;;
16119;SDS011;12670;53.502;10.252;2023-04-24T04:04:47;3.97;;;1.70;;
16119;SDS011;12670;53.502;10.252;2023-04-24T04:07:50;6.40;;;3.30;;
16119;SDS011;12670;53.502;10.252;2023-04-24T04:10:54;7.30;;;3.57;;
16119;SDS011;12670;53.502;10.252;2023-04-24T04:13:56;4.27;;;1.60;;
16119;SDS011;12670;53.502;10.252;2023-04-24T04:16:59;2.10;;;1.53;;
16119;SDS011;12670;53.502;10.252;2023-04-24T04:20:02;3.80;;;1.90;;
16119;SDS011;12670;53.502;10.252;2023-04-24T04:23:08;3.27;;;1.80;;
16119;SDS011;12670;53.502;10.252;2023-04-24T04:26:12;3.57;;;1.40;;
16119;SDS011;12670;53.502;10.252;2023-04-24T04:29:14;4.47;;;1.97;;
16119;SDS011;12670;53.502;10.252;2023-04-24T04:32:19;3.20;;;1.60;;
16119;SDS011;12670;53.502;10.252;2023-04-24T04:35:21;2.13;;;1.60;;
16119;SDS011;12670;53.502;10.252;2023-04-24T04:38:24;2.93;;;1.70;;
16119;SDS011;12670;53.502;10.252;2023-04-24T04:41:29;3.73;;;1.83;;
16119;SDS011;12670;53.502;10.252;2023-04-24T04:44:31;4.97;;;1.70;;
16119;SDS011;12670;53.502;10.252;2023-04-24T04:47:37;3.60;;;1.70;;
16119;SDS011;12670;53.502;10.252;2023-04-24T04:50:40;3.87;;;1.50;;
16119;SDS011;12670;53.502;10.252;2023-04-24T04:53:43;2.40;;;1.70;;
16119;SDS011;12670;53.502;10.252;2023-04-24T04:56:47;2.57;;;1.67;;
16119;SDS011;12670;53.502;10.252;2023-04-24T04:59:52;2.63;;;1.73;;
16119;SDS011;12670;53.502;10.252;2023-04-24T05:02:54;8.77;;;1.90;;
16119;SDS011;12670;53.502;10.252;2023-04-24T05:06:13;5.13;;;1.80;;
16119;SDS011;12670;53.502;10.252;2023-04-24T05:09:16;2.87;;;1.60;;
16119;SDS011;12670;53.502;10.252;2023-04-24T05:12:20;3.63;;;1.60;;
16119;SDS011;12670;53.502;10.252;2023-04-24T05:15:22;4.50;;;1.20;;
16119;SDS011;12670;53.502;10.252;2023-04-24T05:18:25;4.87;;;2.10;;
16119;SDS011;12670;53.502;10.252;2023-04-24T05:21:28;1.80;;;1.40;;
16119;SDS011;12670;53.502;10.252;2023-04-24T05:24:30;4.10;;;1.50;;
16119;SDS011;12670;53.502;10.252;2023-04-24T05:27:34;1.87;;;1.37;;
16119;SDS011;12670;53.502;10.252;2023-04-24T05:30:37;2.37;;;1.40;;
16119;SDS011;12670;53.502;10.252;2023-04-24T05:33:39;5.97;;;1.40;;
16119;SDS011;12670;53.502;10.252;2023-04-24T05:36:42;3.27;;;1.63;;
16119;SDS011;12670;53.502;10.252;2023-04-24T05:39:45;3.20;;;1.50;;
16119;SDS011;12670;53.502;10.252;2023-04-24T05:42:49;3.93;;;1.40;;
16119;SDS011;12670;53.502;10.252;2023-04-24T05:45:52;2.40;;;1.20;;
16119;SDS011;12670;53.502;10.252;2023-04-24T05:48:56;3.13;;;1.10;;
16119;SDS011;12670;53.502;10.252;2023-04-24T05:51:59;2.30;;;1.23;;
16119;SDS011;12670;53.502;10.252;2023-04-24T05:55:01;2.13;;;1.10;;
16119;SDS011;12670;53.502;10.252;2023-04-24T05:58:05;1.87;;;1.40;;
16119;SDS011;12670;53.502;10.252;2023-04-24T06:01:08;1.80;;;1.00;;
16119;SDS011;12670;53.502;10.252;2023-04-24T06:04:11;1.57;;;0.80;;
16119;SDS011;12670;53.502;10.252;2023-04-24T06:07:16;1.83;;;1.10;;
16119;SDS011;12670;53.502;10.252;2023-04-24T06:10:19;1.63;;;1.10;;
16119;SDS011;12670;53.502;10.252;2023-04-24T06:13:23;4.60;;;2.73;;
16119;SDS011;12670;53.502;10.252;2023-04-24T06:16:26;9.23;;;4.10;;
16119;SDS011;12670;53.502;10.252;2023-04-24T06:19:28;6.47;;;3.10;;
16119;SDS011;12670;53.502;10.252;2023-04-24T06:22:31;2.10;;;1.47;;
16119;SDS011;12670;53.502;10.252;2023-04-24T06:25:34;5.43;;;2.50;;
16119;SDS011;12670;53.502;10.252;2023-04-24T06:28:38;3.43;;;1.30;;
16119;SDS011;12670;53.502;10.252;2023-04-24T06:31:40;1.30;;;1.20;;
16119;SDS011;12670;53.502;10.252;2023-04-24T06:34:43;1.87;;;1.10;;
16119;SDS011;12670;53.502;10.252;2023-04-24T06:37:46;1.63;;;1.23;;
16119;SDS011;12670;53.502;10.252;2023-04-24T06:40:48;3.63;;;1.10;;
16119;SDS011;12670;53.502;10.252;2023-04-24T06:43:52;1.73;;;1.37;;
16119;SDS011;12670;53.502;10.252;2023-04-24T06:46:55;1.83;;;1.20;;
16119;SDS011;12670;53.502;10.252;2023-04-24T06:49:58;1.87;;;1.53;;
16119;SDS011;12670;53.502;10.252;2023-04-24T06:53:00;1.50;;;1.37;;
16119;SDS011;12670;53.502;10.252;2023-04-24T06:56:03;2.30;;;1.30;;
16119;SDS011;12670;53.502;10.252;2023-04-24T06:59:07;3.87;;;1.40;;
16119;SDS011;12670;53.502;10.252;2023-04-24T07:02:10;1.30;;;1.13;;
16119;SDS011;12670;53.502;10.252;2023-04-24T07:05:13;3.50;;;1.63;;
16119;SDS011;12670;53.502;10.252;2023-04-24T07:08:16;2.03;;;1.57;;
16119;SDS011;12670;53.502;10.252;2023-04-24T07:11:19;4.43;;;1.60;;
16119;SDS011;12670;53.502;10.252;2023-04-24T07:14:24;1.97;;;1.40;;
16119;SDS011;12670;53.502;10.252;2023-04-24T07:17:27;3.27;;;1.43;;
16119;SDS011;12670;53.502;10.252;2023-04-24T07:20:30;1.97;;;1.50;;
16119;SDS011;12670;53.502;10.252;2023-04-24T07:23:32;2.03;;;1.50;;
16119;SDS011;12670;53.502;10.252;2023-04-24T07:26:35;2.93;;;1.80;;
16119;SDS011;12670;53.502;10.252;2023-04-24T07:29:39;1.70;;;1.40;;
16119;SDS011;12670;53.502;10.252;2023-04-24T07:32:42;3.10;;;1.70;;
16119;SDS011;12670;53.502;10.252;2023-04-24T07:35:45;2.00;;;1.60;;
16119;SDS011;12670;53.502;10.252;2023-04-24T07:38:47;2.80;;;1.70;;
16119;SDS011;12670;53.502;10.252;2023-04-24T07:41:51;5.17;;;1.77;;
16119;SDS011;12670;53.502;10.252;2023-04-24T07:44:55;4.80;;;2.07;;
16119;SDS011;12670;53.502;10.252;2023-04-24T07:47:57;2.30;;;1.90;;
16119;SDS011;12670;53.502;10.252;2023-04-24T07:51:00;2.40;;;1.80;;
16119;SDS011;12670;53.502;10.252;2023-04-24T07:54:03;4.53;;;1.90;;
16119;SDS011;12670;53.502;10.252;2023-04-24T07:57:06;3.47;;;1.77;;
16119;SDS011;12670;53.502;10.252;2023-04-24T08:00:11;3.83;;;2.20;;
16119;SDS011;12670;53.502;10.252;2023-04-24T08:03:14;2.30;;;1.70;;
16119;SDS011;12670;53.502;10.252;2023-04-24T08:06:20;3.43;;;1.60;;
16119;SDS011;12670;53.502;10.252;2023-04-24T08:09:23;2.03;;;1.60;;
16119;SDS011;12670;53.502;10.252;2023-04-24T08:12:28;3.00;;;1.83;;
16119;SDS011;12670;53.502;10.252;2023-04-24T08:15:32;2.20;;;1.67;;
16119;SDS011;12670;53.502;10.252;2023-04-24T08:18:35;3.07;;;1.90;;
16119;SDS011;12670;53.502;10.252;2023-04-24T08:21:38;2.83;;;2.30;;
16119;SDS011;12670;53.502;10.252;2023-04-24T08:24:40;2.03;;;1.70;;
16119;SDS011;12670;53.502;10.252;2023-04-24T08:27:43;3.17;;;1.93;;
16119;SDS011;12670;53.502;10.252;2023-04-24T08:30:47;3.00;;;2.17;;
16119;SDS011;12670;53.502;10.252;2023-04-24T08:33:55;4.20;;;2.40;;
16119;SDS011;12670;53.502;10.252;2023-04-24T08:36:58;3.80;;;2.53;;
16119;SDS011;12670;53.502;10.252;2023-04-24T08:40:01;7.40;;;2.77;;
16119;SDS011;12670;53.502;10.252;2023-04-24T08:43:05;4.37;;;2.80;;
16119;SDS011;12670;53.502;10.252;2023-04-24T08:46:09;6.17;;;3.00;;
16119;SDS011;12670;53.502;10.252;2023-04-24T08:49:13;5.90;;;3.00;;
16119;SDS011;12670;53.502;10.252;2023-04-24T08:52:17;4.10;;;3.03;;
16119;SDS011;12670;53.502;10.252;2023-04-24T08:55:21;4.83;;;3.50;;
16119;SDS011;12670;53.502;10.252;2023-04-24T08:58:24;5.13;;;3.53;;
16119;SDS011;12670;53.502;10.252;2023-04-24T09:01:29;5.50;;;3.33;;
16119;SDS011;12670;53.502;10.252;2023-04-24T09:04:35;4.97;;;3.30;;
16119;SDS011;12670;53.502;10.252;2023-04-24T09:07:39;6.73;;;3.47;;
16119;SDS011;12670;53.502;10.252;2023-04-24T09:10:46;4.03;;;3.20;;
16119;SDS011;12670;53.502;10.252;2023-04-24T09:13:51;4.27;;;3.40;;
16119;SDS011;12670;53.502;10.252;2023-04-24T09:16:56;4.77;;;3.13;;
16119;SDS011;12670;53.502;10.252;2023-04-24T09:20:00;4.33;;;3.40;;
16119;SDS011;12670;53.502;10.252;2023-04-24T09:23:02;5.43;;;3.60;;
16119;SDS011;12670;53.502;10.252;2023-04-24T09:26:05;6.17;;;4.03;;
16119;SDS011;12670;53.502;10.252;2023-04-24T09:29:08;5.00;;;3.87;;
16119;SDS011;12670;53.502;10.252;2023-04-24T09:32:19;4.20;;;3.10;;
16119;SDS011;12670;53.502;10.252;2023-04-24T09:35:23;4.57;;;3.50;;
16119;SDS011;12670;53.502;10.252;2023-04-24T09:38:33;4.67;;;3.67;;
16119;SDS011;12670;53.502;10.252;2023-04-24T09:41:43;6.27;;;3.93;;
16119;SDS011;12670;53.502;10.252;2023-04-24T09:44:46;5.77;;;3.67;;
16119;SDS011;12670;53.502;10.252;2023-04-24T09:48:06;5.23;;;3.67;;
16119;SDS011;12670;53.502;10.252;2023-04-24T09:51:11;4.37;;;3.27;;
16119;SDS011;12670;53.502;10.252;2023-04-24T09:54:17;4.30;;;3.00;;
16119;SDS011;12670;53.502;10.252;2023-04-24T09:57:22;5.27;;;3.23;;
16119;SDS011;12670;53.502;10.252;2023-04-24T10:00:25;4.70;;;3.50;;
16119;SDS011;12670;53.502;10.252;2023-04-24T10:03:30;4.17;;;3.30;;
16119;SDS011;12670;53.502;10.252;2023-04-24T10:06:34;4.83;;;3.80;;
16119;SDS011;12670;53.502;10.252;2023-04-24T10:09:37;6.13;;;3.50;;
16119;SDS011;12670;53.502;10.252;2023-04-24T10:12:40;5.10;;;3.80;;
16119;SDS011;12670;53.502;10.252;2023-04-24T10:15:43;5.53;;;3.70;;
16119;SDS011;12670;53.502;10.252;2023-04-24T10:18:47;6.63;;;3.33;;
16119;SDS011;12670;53.502;10.252;2023-04-24T10:21:51;6.10;;;4.20;;
16119;SDS011;12670;53.502;10.252;2023-04-24T10:24:55;7.13;;;4.30;;
16119;SDS011;12670;53.502;10.252;2023-04-24T10:27:59;7.13;;;5.00;;
16119;SDS011;12670;53.502;10.252;2023-04-24T10:31:03;7.17;;;4.40;;
16119;SDS011;12670;53.502;10.252;2023-04-24T10:34:08;4.73;;;3.77;;
16119;SDS011;12670;53.502;10.252;2023-04-24T10:37:11;9.53;;;4.93;;
16119;SDS011;12670;53.502;10.252;2023-04-24T10:40:16;9.03;;;4.50;;
16119;SDS011;12670;53.502;10.252;2023-04-24T10:43:20;6.03;;;4.40;;
16119;SDS011;12670;53.502;10.252;2023-04-24T10:46:23;8.23;;;4.60;;
16119;SDS011;12670;53.502;10.252;2023-04-24T10:49:32;8.63;;;4.70;;
16119;SDS011;12670;53.502;10.252;2023-04-24T10:52:43;10.07;;;5.40;;
16119;SDS011;12670;53.502;10.252;2023-04-24T10:55:47;8.87;;;5.57;;
16119;SDS011;12670;53.502;10.252;2023-04-24T10:58:52;10.70;;;5.40;;
16119;SDS011;12670;53.502;10.252;2023-04-24T11:01:55;9.03;;;5.97;;
16119;SDS011;12670;53.502;10.252;2023-04-24T11:04:59;26.97;;;14.63;;
16119;SDS011;12670;53.502;10.252;2023-04-24T11:08:15;11.87;;;6.13;;
16119;SDS011;12670;53.502;10.252;2023-04-24T11:11:23;11.43;;;6.13;;
16119;SDS011;12670;53.502;10.252;2023-04-24T11:14:31;8.67;;;6.10;;
16119;SDS011;12670;53.502;10.252;2023-04-24T11:18:04;8.50;;;6.13;;
16119;SDS011;12670;53.502;10.252;2023-04-24T11:21:11;13.83;;;6.57;;
16119;SDS011;12670;53.502;10.252;2023-04-24T11:24:23;10.27;;;6.40;;
16119;SDS011;12670;53.502;10.252;2023-04-24T11:27:31;9.40;;;5.83;;
16119;SDS011;12670;53.502;10.252;2023-04-24T11:30:34;8.23;;;5.27;;
16119;SDS011;12670;53.502;10.252;2023-04-24T11:33:37;11.50;;;6.00;;
16119;SDS011;12670;53.502;10.252;2023-04-24T11:36:42;9.03;;;5.10;;
16119;SDS011;12670;53.502;10.252;2023-04-24T11:39:45;7.30;;;4.63;;
16119;SDS011;12670;53.502;10.252;2023-04-24T11:42:47;11.07;;;5.80;;
16119;SDS011;12670;53.502;10.252;2023-04-24T11:45:52;9.50;;;5.30;;
16119;SDS011;12670;53.502;10.252;2023-04-24T11:48:55;8.50;;;5.70;;
16119;SDS011;12670;53.502;10.252;2023-04-24T11:52:00;10.77;;;5.27;;
16119;SDS011;12670;53.502;10.252;2023-04-24T11:55:03;7.57;;;4.60;;
16119;SDS011;12670;53.502;10.252;2023-04-24T11:58:07;10.13;;;4.53;;
16119;SDS011;12670;53.502;10.252;2023-04-24T12:01:09;6.00;;;4.10;;
16119;SDS011;12670;53.502;10.252;2023-04-24T12:04:12;5.83;;;4.00;;
16119;SDS011;12670;53.502;10.252;2023-04-24T12:07:17;6.13;;;3.87;;
16119;SDS011;12670;53.502;10.252;2023-04-24T12:10:19;5.37;;;3.47;;
16119;SDS011;12670;53.502;10.252;2023-04-24T12:13:22;9.00;;;4.20;;
16119;SDS011;12670;53.502;10.252;2023-04-24T12:16:27;5.20;;;3.47;;
16119;SDS011;12670;53.502;10.252;2023-04-24T12:19:32;6.63;;;3.50;;
16119;SDS011;12670;53.502;10.252;2023-04-24T12:22:45;5.47;;;3.37;;
16119;SDS011;12670;53.502;10.252;2023-04-24T12:25:50;4.60;;;3.30;;
16119;SDS011;12670;53.502;10.252;2023-04-24T12:28:53;6.67;;;3.80;;
16119;SDS011;12670;53.502;10.252;2023-04-24T12:31:55;6.83;;;4.10;;
16119;SDS011;12670;53.502;10.252;2023-04-24T12:34:58;6.80;;;3.83;;
16119;SDS011;12670;53.502;10.252;2023-04-24T12:38:09;5.43;;;3.83;;
16119;SDS011;12670;53.502;10.252;2023-04-24T12:41:14;7.03;;;4.13;;
16119;SDS011;12670;53.502;10.252;2023-04-24T12:44:16;7.30;;;4.40;;
16119;SDS011;12670;53.502;10.252;2023-04-24T12:47:19;6.83;;;4.23;;
16119;SDS011;12670;53.502;10.252;2023-04-24T12:50:22;8.57;;;5.10;;
16119;SDS011;12670;53.502;10.252;2023-04-24T12:53:26;6.10;;;4.47;;
16119;SDS011;12670;53.502;10.252;2023-04-24T12:56:30;7.60;;;5.17;;
16119;SDS011;12670;53.502;10.252;2023-04-24T12:59:33;7.93;;;5.00;;
16119;SDS011;12670;53.502;10.252;2023-04-24T13:02:35;5.40;;;3.97;;
16119;SDS011;12670;53.502;10.252;2023-04-24T13:05:38;5.07;;;3.97;;
16119;SDS011;12670;53.502;10.252;2023-04-24T13:08:42;5.73;;;3.77;;
16119;SDS011;12670;53.502;10.252;2023-04-24T13:11:45;6.13;;;3.63;;
16119;SDS011;12670;53.502;10.252;2023-04-24T13:14:48;6.27;;;3.37;;
16119;SDS011;12670;53.502;10.252;2023-04-24T13:17:50;4.50;;;3.10;;
16119;SDS011;12670;53.502;10.252;2023-04-24T13:20:53;4.80;;;3.40;;
16119;SDS011;12670;53.502;10.252;2023-04-24T13:23:57;4.17;;;3.20;;
16119;SDS011;12670;53.502;10.252;2023-04-24T13:27:00;4.50;;;3.13;;
16119;SDS011;12670;53.502;10.252;2023-04-24T13:30:03;6.53;;;3.37;;
16119;SDS011;12670;53.502;10.252;2023-04-24T13:33:07;10.57;;;6.03;;
16119;SDS011;12670;53.502;10.252;2023-04-24T13:36:09;5.80;;;3.63;;
16119;SDS011;12670;53.502;10.252;2023-04-24T13:39:13;5.80;;;3.90;;
16119;SDS011;12670;53.502;10.252;2023-04-24T13:42:18;7.40;;;5.23;;
16119;SDS011;12670;53.502;10.252;2023-04-24T13:45:21;6.67;;;3.63;;
16119;SDS011;12670;53.502;10.252;2023-04-24T13:48:26;6.13;;;3.50;;
16119;SDS011;12670;53.502;10.252;2023-04-24T13:51:28;4.50;;;3.03;;
16119;SDS011;12670;53.502;10.252;2023-04-24T13:54:33;6.73;;;3.50;;
16119;SDS011;12670;53.502;10.252;2023-04-24T13:57:35;3.90;;;3.10;;
16119;SDS011;12670;53.502;10.252;2023-04-24T14:00:38;5.77;;;3.07;;
16119;SDS011;12670;53.502;10.252;2023-04-24T14:03:41;6.03;;;3.90;;
16119;SDS011;12670;53.502;10.252;2023-04-24T14:06:45;5.00;;;3.43;;
16119;SDS011;12670;53.502;10.252;2023-04-24T14:09:49;4.60;;;3.17;;
16119;SDS011;12670;53.502;10.252;2023-04-24T14:12:51;4.63;;;3.00;;
16119;SDS011;12670;53.502;10.252;2023-04-24T14:15:55;4.47;;;3.00;;
16119;SDS011;12670;53.502;10.252;2023-04-24T14:18:57;3.30;;;2.53;;
16119;SDS011;12670;53.502;10.252;2023-04-24T14:22:00;3.03;;;2.30;;
16119;SDS011;12670;53.502;10.252;2023-04-24T14:25:05;4.30;;;2.10;;
16119;SDS011;12670;53.502;10.252;2023-04-24T14:28:08;4.87;;;2.10;;
16119;SDS011;12670;53.502;10.252;2023-04-24T14:31:11;2.73;;;2.10;;
16119;SDS011;12670;53.502;10.252;2023-04-24T14:34:14;2.27;;;2.00;;
16119;SDS011;12670;53.502;10.252;2023-04-24T14:37:16;2.80;;;2.20;;
16119;SDS011;12670;53.502;10.252;2023-04-24T14:40:20;3.03;;;2.20;;
16119;SDS011;12670;53.502;10.252;2023-04-24T14:43:43;3.17;;;2.37;;
16119;SDS011;12670;53.502;10.252;2023-04-24T14:46:48;3.70;;;2.30;;
16119;SDS011;12670;53.502;10.252;2023-04-24T14:49:50;3.13;;;2.57;;
16119;SDS011;12670;53.502;10.252;2023-04-24T14:52:53;3.03;;;2.50;;
16119;SDS011;12670;53.502;10.252;2023-04-24T14:55:59;3.73;;;2.53;;
16119;SDS011;12670;53.502;10.252;2023-04-24T14:59:02;4.43;;;2.40;;
16119;SDS011;12670;53.502;10.252;2023-04-24T15:02:05;3.23;;;2.33;;
16119;SDS011;12670;53.502;10.252;2023-04-24T15:05:17;3.57;;;2.30;;
16119;SDS011;12670;53.502;10.252;2023-04-24T15:08:20;3.00;;;2.20;;
16119;SDS011;12670;53.502;10.252;2023-04-24T15:11:24;2.60;;;2.10;;
16119;SDS011;12670;53.502;10.252;2023-04-24T15:14:27;2.60;;;1.87;;
16119;SDS011;12670;53.502;10.252;2023-04-24T15:17:29;4.80;;;1.87;;
16119;SDS011;12670;53.502;10.252;2023-04-24T15:20:33;9.67;;;5.20;;
16119;SDS011;12670;53.502;10.252;2023-04-24T15:23:38;3.37;;;2.60;;
16119;SDS011;12670;53.502;10.252;2023-04-24T15:26:42;2.80;;;2.60;;
16119;SDS011;12670;53.502;10.252;2023-04-24T15:29:45;5.87;;;3.50;;
16119;SDS011;12670;53.502;10.252;2023-04-24T15:32:48;8.73;;;4.50;;
16119;SDS011;12670;53.502;10.252;2023-04-24T15:35:51;6.17;;;3.70;;
16119;SDS011;12670;53.502;10.252;2023-04-24T15:38:53;5.43;;;4.27;;
16119;SDS011;12670;53.502;10.252;2023-04-24T15:41:58;5.37;;;3.90;;
16119;SDS011;12670;53.502;10.252;2023-04-24T15:45:01;27.20;;;12.87;;
16119;SDS011;12670;53.502;10.252;2023-04-24T15:48:04;7.13;;;5.20;;
16119;SDS011;12670;53.502;10.252;2023-04-24T15:51:07;9.87;;;6.03;;
16119;SDS011;12670;53.502;10.252;2023-04-24T15:54:10;8.50;;;4.27;;
16119;SDS011;12670;53.502;10.252;2023-04-24T15:57:14;13.47;;;6.60;;
16119;SDS011;12670;53.502;10.252;2023-04-24T16:00:17;5.53;;;3.37;;
16119;SDS011;12670;53.502;10.252;2023-04-24T16:03:20;4.30;;;2.67;;
16119;SDS011;12670;53.502;10.252;2023-04-24T16:06:23;4.03;;;2.30;;
16119;SDS011;12670;53.502;10.252;2023-04-24T16:09:27;4.27;;;2.73;;
16119;SDS011;12670;53.502;10.252;2023-04-24T16:12:32;4.23;;;2.70;;
16119;SDS011;12670;53.502;10.252;2023-04-24T16:15:34;4.90;;;2.70;;
16119;SDS011;12670;53.502;10.252;2023-04-24T16:18:37;5.50;;;3.03;;
16119;SDS011;12670;53.502;10.252;2023-04-24T16:21:40;4.40;;;3.07;;
16119;SDS011;12670;53.502;10.252;2023-04-24T16:24:42;4.30;;;2.63;;
16119;SDS011;12670;53.502;10.252;2023-04-24T16:27:49;5.30;;;3.10;;
16119;SDS011;12670;53.502;10.252;2023-04-24T16:30:52;6.17;;;3.10;;
16119;SDS011;12670;53.502;10.252;2023-04-24T16:33:55;4.80;;;2.90;;
16119;SDS011;12670;53.502;10.252;2023-04-24T16:36:58;5.97;;;3.20;;
16119;SDS011;12670;53.502;10.252;2023-04-24T16:40:00;6.73;;;3.33;;
16119;SDS011;12670;53.502;10.252;2023-04-24T16:43:06;5.30;;;3.60;;
16119;SDS011;12670;53.502;10.252;2023-04-24T16:46:08;7.63;;;4.27;;
16119;SDS011;12670;53.502;10.252;2023-04-24T16:49:11;9.10;;;4.47;;
16119;SDS011;12670;53.502;10.252;2023-04-24T16:52:14;9.33;;;4.50;;
16119;SDS011;12670;53.502;10.252;2023-04-24T16:55:16;8.20;;;4.30;;
16119;SDS011;12670;53.502;10.252;2023-04-24T16:58:20;7.73;;;4.23;;
16119;SDS011;12670;53.502;10.252;2023-04-24T17:01:23;7.27;;;4.13;;
16119;SDS011;12670;53.502;10.252;2023-04-24T17:04:26;8.53;;;4.00;;
16119;SDS011;12670;53.502;10.252;2023-04-24T17:07:29;7.83;;;4.00;;
16119;SDS011;12670;53.502;10.252;2023-04-24T17:10:32;7.80;;;4.10;;
16119;SDS011;12670;53.502;10.252;2023-04-24T17:13:36;6.13;;;4.00;;
16119;SDS011;12670;53.502;10.252;2023-04-24T17:16:38;8.70;;;4.27;;
16119;SDS011;12670;53.502;10.252;2023-04-24T17:19:41;6.10;;;3.60;;
16119;SDS011;12670;53.502;10.252;2023-04-24T17:22:44;5.33;;;3.63;;
16119;SDS011;12670;53.502;10.252;2023-04-24T17:25:47;6.43;;;3.77;;
16119;SDS011;12670;53.502;10.252;2023-04-24T17:28:51;6.40;;;4.10;;
16119;SDS011;12670;53.502;10.252;2023-04-24T17:31:55;8.27;;;3.90;;
16119;SDS011;12670;53.502;10.252;2023-04-24T17:34:59;6.30;;;4.10;;
16119;SDS011;12670;53.502;10.252;2023-04-24T17:38:02;6.77;;;3.80;;
16119;SDS011;12670;53.502;10.252;2023-04-24T17:41:04;9.53;;;3.90;;
16119;SDS011;12670;53.502;10.252;2023-04-24T17:44:08;5.53;;;3.77;;
16119;SDS011;12670;53.502;10.252;2023-04-24T17:47:11;10.60;;;3.73;;
16119;SDS011;12670;53.502;10.252;2023-04-24T17:50:14;5.53;;;3.83;;
16119;SDS011;12670;53.502;10.252;2023-04-24T17:53:16;5.17;;;3.57;;
16119;SDS011;12670;53.502;10.252;2023-04-24T17:56:20;7.83;;;3.70;;
16119;SDS011;12670;53.502;10.252;2023-04-24T17:59:26;8.50;;;4.10;;
16119;SDS011;12670;53.502;10.252;2023-04-24T18:02:29;5.40;;;3.60;;
16119;SDS011;12670;53.502;10.252;2023-04-24T18:05:32;9.23;;;3.80;;
16119;SDS011;12670;53.502;10.252;2023-04-24T18:08:36;6.90;;;3.70;;